createdAt,value
2024-01-14T00:00:41.138Z,601.00
2024-01-14T00:01:41.019Z,601.00
2024-01-14T00:02:41.221Z,605.00
2024-01-14T00:03:41.097Z,602.00
2024-01-14T00:04:41.078Z,603.00
2024-01-14T00:05:41.099Z,603.00
2024-01-14T00:06:41.203Z,602.00
2024-01-14T00:07:41.105Z,601.00
2024-01-14T00:08:41.042Z,601.00
2024-01-14T00:09:41.049Z,603.00
2024-01-14T00:10:41.053Z,601.00
2024-01-14T00:11:41.153Z,602.00
2024-01-14T00:12:41.331Z,603.00
2024-01-14T00:13:41.247Z,604.00
2024-01-14T00:14:41.406Z,602.00
2024-01-14T00:15:41.458Z,602.00
2024-01-14T00:16:41.481Z,603.00
2024-01-14T00:17:41.626Z,605.00
2024-01-14T00:18:41.752Z,605.00
2024-01-14T00:19:41.850Z,602.00
2024-01-14T00:20:41.788Z,604.00
2024-01-14T00:21:41.807Z,602.00
2024-01-14T00:22:41.890Z,603.00
2024-01-14T00:23:41.966Z,605.00
2024-01-14T00:24:42.023Z,603.00
2024-01-14T00:25:42.120Z,604.00
2024-01-14T00:26:42.199Z,605.00
2024-01-14T00:27:42.239Z,602.00
2024-01-14T00:28:42.309Z,603.00
2024-01-14T00:29:42.368Z,604.00
2024-01-14T00:30:42.491Z,600.00
2024-01-14T00:31:42.603Z,606.00
2024-01-14T00:32:42.621Z,606.00
2024-01-14T00:33:42.834Z,603.00
2024-01-14T00:34:42.800Z,605.00
2024-01-14T00:35:45.314Z,603.00
2024-01-14T00:36:42.810Z,606.00
2024-01-14T00:37:42.785Z,603.00
2024-01-14T00:38:42.793Z,605.00
2024-01-14T00:39:42.800Z,603.00
2024-01-14T00:40:42.794Z,605.00
2024-01-14T00:41:42.790Z,604.00
2024-01-14T00:42:42.777Z,604.00
2024-01-14T00:43:42.808Z,601.00
2024-01-14T00:44:42.791Z,605.00
2024-01-14T00:45:42.872Z,604.00
2024-01-14T00:46:42.795Z,601.00
2024-01-14T00:47:43.902Z,605.00
2024-01-14T00:48:42.910Z,605.00
2024-01-14T00:49:42.854Z,604.00
2024-01-14T00:50:42.817Z,606.00
2024-01-14T00:51:42.898Z,605.00
2024-01-14T00:52:42.799Z,605.00
2024-01-14T00:53:42.812Z,604.00
2024-01-14T00:54:42.778Z,606.00
2024-01-14T00:55:42.791Z,605.00
2024-01-14T00:56:42.792Z,603.00
2024-01-14T00:57:42.799Z,604.00
2024-01-14T00:58:42.803Z,605.00
2024-01-14T00:59:42.802Z,605.00
2024-01-14T01:00:42.987Z,607.00
2024-01-14T01:01:43.345Z,605.00
2024-01-14T01:02:42.807Z,605.00
2024-01-14T01:03:42.848Z,605.00
2024-01-14T01:04:42.877Z,604.00
2024-01-14T01:05:42.895Z,606.00
2024-01-14T01:06:42.852Z,604.00
2024-01-14T01:07:49.502Z,603.00
2024-01-14T01:08:42.877Z,604.00
2024-01-14T01:09:42.866Z,604.00
2024-01-14T01:10:42.861Z,604.00
2024-01-14T01:11:42.874Z,605.00
2024-01-14T01:12:42.888Z,606.00
2024-01-14T01:13:42.887Z,605.00
2024-01-14T01:14:42.888Z,607.00
2024-01-14T01:15:42.960Z,606.00
2024-01-14T01:16:42.899Z,603.00
2024-01-14T01:17:42.963Z,600.00
2024-01-14T01:18:42.977Z,605.00
2024-01-14T01:19:43.002Z,601.00
2024-01-14T01:20:42.912Z,604.00
2024-01-14T01:21:42.901Z,605.00
2024-01-14T01:22:42.890Z,604.00
2024-01-14T01:23:42.960Z,605.00
2024-01-14T01:24:42.926Z,604.00
2024-01-14T01:25:42.909Z,604.00
2024-01-14T01:26:42.885Z,606.00
2024-01-14T01:27:42.934Z,601.00
2024-01-14T01:28:42.889Z,607.00
2024-01-14T01:29:42.900Z,604.00
2024-01-14T01:30:43.073Z,604.00
2024-01-14T01:31:47.686Z,603.00
2024-01-14T01:32:44.147Z,603.00
2024-01-14T01:33:43.103Z,603.00
2024-01-14T01:34:43.104Z,604.00
2024-01-14T01:35:42.915Z,605.00
2024-01-14T01:36:42.919Z,603.00
2024-01-14T01:37:42.934Z,605.00
2024-01-14T01:38:42.926Z,604.00
2024-01-14T01:39:42.965Z,604.00
2024-01-14T01:40:43.037Z,604.00
2024-01-14T01:41:43.125Z,603.00
2024-01-14T01:42:43.211Z,604.00
2024-01-14T01:43:43.262Z,606.00
2024-01-14T01:44:43.315Z,605.00
2024-01-14T01:45:43.389Z,604.00
2024-01-14T01:46:43.461Z,604.00
2024-01-14T01:47:43.586Z,605.00
2024-01-14T01:48:43.743Z,605.00
2024-01-14T01:49:43.730Z,603.00
2024-01-14T01:50:43.769Z,604.00
2024-01-14T01:51:43.812Z,604.00
2024-01-14T01:52:43.885Z,604.00
2024-01-14T01:53:43.974Z,603.00
2024-01-14T01:54:44.026Z,602.00
2024-01-14T01:55:44.119Z,605.00
2024-01-14T01:56:44.175Z,605.00
2024-01-14T01:57:45.091Z,602.00
2024-01-14T01:58:44.332Z,603.00
2024-01-14T01:59:44.416Z,604.00
2024-01-14T02:00:44.521Z,606.00
2024-01-14T02:01:44.537Z,605.00
2024-01-14T02:02:44.612Z,603.00
2024-01-14T02:03:44.836Z,606.00
2024-01-14T02:04:44.789Z,605.00
2024-01-14T02:05:44.824Z,606.00
2024-01-14T02:06:44.900Z,602.00
2024-01-14T02:07:44.978Z,606.00
2024-01-14T02:08:45.065Z,604.00
2024-01-14T02:09:45.119Z,606.00
2024-01-14T02:10:45.172Z,605.00
2024-01-14T02:11:45.262Z,605.00
2024-01-14T02:12:46.810Z,604.00
2024-01-14T02:13:45.382Z,602.00
2024-01-14T02:14:45.439Z,605.00
2024-01-14T02:15:45.506Z,604.00
2024-01-14T02:16:45.623Z,606.00
2024-01-14T02:17:45.718Z,605.00
2024-01-14T02:18:45.865Z,604.00
2024-01-14T02:19:46.020Z,605.00
2024-01-14T02:20:45.827Z,604.00
2024-01-14T02:21:45.925Z,604.00
2024-01-14T02:22:46.022Z,605.00
2024-01-14T02:23:46.073Z,601.00
2024-01-14T02:24:46.118Z,606.00
2024-01-14T02:25:46.211Z,605.00
2024-01-14T02:26:46.257Z,602.00
2024-01-14T02:28:07.336Z,602.00
2024-01-14T02:28:46.335Z,602.00
2024-01-14T02:29:46.334Z,604.00
2024-01-14T02:30:46.410Z,606.00
2024-01-14T02:31:46.346Z,608.00
2024-01-14T02:32:46.366Z,610.00
2024-01-14T02:33:46.433Z,609.00
2024-01-14T02:34:46.384Z,609.00
2024-01-14T02:35:46.370Z,607.00
2024-01-14T02:36:46.358Z,605.00
2024-01-14T02:37:46.359Z,609.00
2024-01-14T02:38:46.340Z,608.00
2024-01-14T02:39:46.355Z,607.00
2024-01-14T02:40:46.349Z,607.00
2024-01-14T02:41:46.350Z,605.00
2024-01-14T02:43:07.360Z,606.00
2024-01-14T02:43:46.376Z,606.00
2024-01-14T02:44:46.357Z,608.00
2024-01-14T02:45:46.399Z,609.00
2024-01-14T02:46:46.359Z,611.00
2024-01-14T02:47:46.390Z,610.00
2024-01-14T02:48:46.516Z,613.00
2024-01-14T02:49:46.447Z,610.00
2024-01-14T02:50:46.391Z,610.00
2024-01-14T02:51:46.397Z,605.00
2024-01-14T02:52:46.404Z,608.00
2024-01-14T02:53:46.423Z,608.00
2024-01-14T02:54:46.411Z,608.00
2024-01-14T02:55:46.434Z,607.00
2024-01-14T02:56:46.432Z,605.00
2024-01-14T02:57:46.569Z,609.00
2024-01-14T02:58:46.397Z,607.00
2024-01-14T02:59:46.424Z,607.00
2024-01-14T03:00:46.564Z,606.00
2024-01-14T03:01:46.420Z,608.00
2024-01-14T03:02:51.451Z,604.00
2024-01-14T03:03:46.508Z,605.00
2024-01-14T03:04:46.424Z,605.00
2024-01-14T03:05:46.451Z,606.00
2024-01-14T03:06:46.631Z,606.00
2024-01-14T03:07:46.432Z,604.00
2024-01-14T03:08:46.471Z,605.00
2024-01-14T03:09:46.542Z,605.00
2024-01-14T03:10:46.623Z,606.00
2024-01-14T03:11:46.717Z,605.00
2024-01-14T03:12:46.765Z,606.00
2024-01-14T03:13:46.833Z,604.00
2024-01-14T03:14:46.900Z,606.00
2024-01-14T03:15:46.964Z,603.00
2024-01-14T03:16:47.039Z,606.00
2024-01-14T03:17:47.152Z,606.00
2024-01-14T03:18:47.277Z,605.00
2024-01-14T03:19:47.314Z,606.00
2024-01-14T03:20:47.311Z,603.00
2024-01-14T03:21:47.388Z,603.00
2024-01-14T03:22:47.461Z,606.00
2024-01-14T03:23:47.543Z,604.00
2024-01-14T03:24:47.628Z,605.00
2024-01-14T03:25:47.681Z,602.00
2024-01-14T03:26:47.764Z,604.00
2024-01-14T03:27:47.815Z,606.00
2024-01-14T03:28:47.887Z,604.00
2024-01-14T03:29:47.949Z,602.00
2024-01-14T03:30:48.133Z,605.00
2024-01-14T03:31:48.125Z,603.00
2024-01-14T03:32:48.202Z,606.00
2024-01-14T03:33:48.354Z,604.00
2024-01-14T03:34:48.419Z,606.00
2024-01-14T03:35:48.513Z,604.00
2024-01-14T03:36:48.466Z,606.00
2024-01-14T03:37:53.595Z,606.00
2024-01-14T03:38:48.631Z,606.00
2024-01-14T03:39:48.532Z,606.00
2024-01-14T03:40:48.550Z,605.00
2024-01-14T03:41:48.568Z,604.00
2024-01-14T03:42:48.538Z,607.00
2024-01-14T03:43:48.608Z,606.00
2024-01-14T03:44:48.779Z,604.00
2024-01-14T03:45:48.705Z,604.00
2024-01-14T03:46:48.777Z,606.00
2024-01-14T03:47:59.105Z,603.00
2024-01-14T03:48:48.986Z,604.00
2024-01-14T03:49:49.072Z,605.00
2024-01-14T03:50:48.938Z,606.00
2024-01-14T03:51:48.854Z,607.00
2024-01-14T03:52:48.832Z,609.00
2024-01-14T03:53:48.898Z,604.00
2024-01-14T03:54:48.844Z,607.00
2024-01-14T03:55:48.957Z,606.00
2024-01-14T03:56:48.935Z,604.00
2024-01-14T03:57:48.854Z,607.00
2024-01-14T03:58:48.824Z,605.00
2024-01-14T03:59:48.960Z,603.00
2024-01-14T04:00:48.989Z,604.00
2024-01-14T04:01:48.840Z,605.00
2024-01-14T04:02:49.029Z,603.00
2024-01-14T04:03:49.019Z,604.00
2024-01-14T04:04:48.959Z,603.00
2024-01-14T04:05:49.259Z,604.00
2024-01-14T04:06:49.171Z,605.00
2024-01-14T04:07:59.252Z,603.00
2024-01-14T04:08:49.182Z,604.00
2024-01-14T04:09:49.182Z,604.00
2024-01-14T04:10:49.171Z,605.00
2024-01-14T04:11:49.182Z,606.00
2024-01-14T04:12:49.166Z,605.00
2024-01-14T04:13:49.169Z,604.00
2024-01-14T04:14:49.156Z,605.00
2024-01-14T04:15:49.166Z,606.00
2024-01-14T04:16:49.165Z,604.00
2024-01-14T04:17:49.280Z,603.00
2024-01-14T04:18:49.229Z,603.00
2024-01-14T04:19:49.189Z,604.00
2024-01-14T04:20:49.320Z,605.00
2024-01-14T04:21:49.180Z,603.00
2024-01-14T04:22:54.221Z,603.00
2024-01-14T04:23:49.216Z,603.00
2024-01-14T04:24:49.163Z,604.00
2024-01-14T04:25:49.173Z,603.00
2024-01-14T04:26:49.335Z,605.00
2024-01-14T04:27:49.189Z,606.00
2024-01-14T04:28:49.224Z,603.00
2024-01-14T04:29:49.328Z,603.00
2024-01-14T04:30:49.439Z,600.00
2024-01-14T04:31:49.456Z,603.00
2024-01-14T04:32:51.008Z,600.00
2024-01-14T04:33:49.898Z,604.00
2024-01-14T04:34:49.675Z,602.00
2024-01-14T04:35:49.724Z,600.00
2024-01-14T04:36:49.764Z,602.00
2024-01-14T04:37:49.838Z,603.00
2024-01-14T04:38:49.971Z,602.00
2024-01-14T04:39:49.972Z,601.00
2024-01-14T04:40:50.046Z,603.00
2024-01-14T04:41:50.195Z,603.00
2024-01-14T04:42:50.191Z,602.00
2024-01-14T04:43:50.324Z,602.00
2024-01-14T04:44:50.354Z,605.00
2024-01-14T04:45:50.418Z,606.00
2024-01-14T04:46:50.471Z,604.00
2024-01-14T04:47:50.706Z,603.00
2024-01-14T04:48:50.753Z,606.00
2024-01-14T04:49:50.743Z,604.00
2024-01-14T04:50:50.809Z,603.00
2024-01-14T04:51:50.784Z,605.00
2024-01-14T04:52:50.866Z,605.00
2024-01-14T04:53:50.968Z,605.00
2024-01-14T04:54:58.266Z,600.00
2024-01-14T04:55:58.264Z,600.00
2024-01-14T04:56:58.303Z,600.00
2024-01-14T04:57:58.276Z,600.00
2024-01-14T04:58:58.275Z,600.00
2024-01-14T04:59:58.326Z,602.00
2024-01-14T05:00:58.343Z,602.00
2024-01-14T05:01:58.394Z,601.00
2024-01-14T05:02:58.500Z,600.00
2024-01-14T05:03:58.631Z,600.00
2024-01-14T05:04:58.657Z,604.00
2024-01-14T05:05:59.052Z,602.00
2024-01-14T05:06:58.794Z,601.00
2024-01-14T05:07:58.867Z,604.00
2024-01-14T05:08:58.942Z,604.00
2024-01-14T05:09:59.392Z,602.00
2024-01-14T05:10:59.047Z,602.00
2024-01-14T05:11:59.139Z,602.00
2024-01-14T05:12:59.211Z,601.00
2024-01-14T05:13:59.284Z,601.00
2024-01-14T05:14:59.366Z,602.00
2024-01-14T05:15:59.443Z,602.00
2024-01-14T05:16:59.480Z,603.00
2024-01-14T05:17:59.665Z,602.00
2024-01-14T05:18:59.707Z,602.00
2024-01-14T05:19:59.699Z,604.00
2024-01-14T05:20:59.829Z,604.00
2024-01-14T05:21:59.849Z,605.00
2024-01-14T05:22:59.919Z,604.00
2024-01-14T05:24:00.021Z,604.00
2024-01-14T05:25:00.042Z,606.00
2024-01-14T05:26:00.115Z,604.00
2024-01-14T05:27:00.282Z,605.00
2024-01-14T05:28:00.277Z,606.00
2024-01-14T05:29:00.335Z,604.00
2024-01-14T05:30:00.482Z,606.00
2024-01-14T05:31:00.638Z,606.00
2024-01-14T05:32:00.536Z,604.00
2024-01-14T05:33:00.687Z,603.00
2024-01-14T05:34:00.720Z,605.00
2024-01-14T05:35:00.752Z,604.00
2024-01-14T05:36:00.865Z,603.00
2024-01-14T05:37:00.911Z,605.00
2024-01-14T05:38:00.970Z,605.00
2024-01-14T05:39:01.060Z,604.00
2024-01-14T05:40:01.155Z,604.00
2024-01-14T05:41:03.244Z,605.00
2024-01-14T05:42:01.259Z,604.00
2024-01-14T05:43:01.315Z,604.00
2024-01-14T05:44:01.402Z,608.00
2024-01-14T05:45:01.581Z,605.00
2024-01-14T05:46:01.556Z,605.00
2024-01-14T05:47:01.599Z,604.00
2024-01-14T05:48:06.767Z,604.00
2024-01-14T05:49:01.885Z,604.00
2024-01-14T05:50:01.973Z,604.00
2024-01-14T05:51:01.755Z,605.00
2024-01-14T05:52:01.688Z,604.00
2024-01-14T05:53:01.728Z,607.00
2024-01-14T05:54:01.851Z,605.00
2024-01-14T05:55:01.880Z,606.00
2024-01-14T05:56:01.962Z,604.00
2024-01-14T05:57:02.093Z,605.00
2024-01-14T05:58:02.105Z,604.00
2024-01-14T05:59:02.210Z,606.00
2024-01-14T06:00:02.367Z,605.00
2024-01-14T06:01:02.345Z,604.00
2024-01-14T06:02:02.423Z,605.00
2024-01-14T06:03:02.480Z,602.00
2024-01-14T06:04:02.516Z,605.00
2024-01-14T06:05:02.666Z,604.00
2024-01-14T06:06:02.841Z,606.00
2024-01-14T06:07:02.813Z,604.00
2024-01-14T06:08:02.764Z,605.00
2024-01-14T06:09:02.854Z,602.00
2024-01-14T06:10:02.879Z,606.00
2024-01-14T06:11:02.937Z,604.00
2024-01-14T06:12:03.105Z,604.00
2024-01-14T06:13:03.076Z,606.00
2024-01-14T06:14:03.132Z,603.00
2024-01-14T06:15:03.259Z,604.00
2024-01-14T06:16:03.261Z,603.00
2024-01-14T06:17:03.307Z,604.00
2024-01-14T06:18:03.515Z,604.00
2024-01-14T06:19:03.567Z,604.00
2024-01-14T06:20:03.510Z,603.00
2024-01-14T06:21:03.584Z,603.00
2024-01-14T06:22:03.588Z,603.00
2024-01-14T06:23:03.672Z,604.00
2024-01-14T06:24:03.715Z,604.00
2024-01-14T06:25:03.725Z,604.00
2024-01-14T06:26:03.765Z,604.00
2024-01-14T06:27:03.990Z,602.00
2024-01-14T06:28:04.207Z,602.00
2024-01-14T06:29:03.955Z,604.00
2024-01-14T06:30:04.131Z,603.00
2024-01-14T06:31:04.193Z,603.00
2024-01-14T06:32:04.125Z,603.00
2024-01-14T06:33:04.192Z,605.00
2024-01-14T06:34:04.298Z,604.00
2024-01-14T06:35:04.276Z,605.00
2024-01-14T06:36:04.307Z,604.00
2024-01-14T06:37:04.353Z,603.00
2024-01-14T06:38:04.388Z,602.00
2024-01-14T06:39:04.440Z,604.00
2024-01-14T06:40:04.462Z,602.00
2024-01-14T06:41:10.247Z,603.00
2024-01-14T06:42:05.521Z,603.00
2024-01-14T06:43:04.513Z,603.00
2024-01-14T06:44:04.526Z,604.00
2024-01-14T06:45:04.530Z,603.00
2024-01-14T06:46:04.572Z,605.00
2024-01-14T06:47:04.512Z,604.00
2024-01-14T06:48:04.555Z,603.00
2024-01-14T06:49:04.705Z,604.00
2024-01-14T06:50:11.195Z,603.00
2024-01-14T06:51:05.682Z,603.00
2024-01-14T06:52:04.537Z,603.00
2024-01-14T06:53:04.519Z,604.00
2024-01-14T06:54:04.570Z,605.00
2024-01-14T06:55:04.536Z,605.00
2024-01-14T06:56:04.552Z,602.00
2024-01-14T06:57:04.653Z,603.00
2024-01-14T06:58:04.544Z,603.00
2024-01-14T06:59:04.532Z,602.00
2024-01-14T07:00:04.637Z,603.00
2024-01-14T07:01:04.667Z,604.00
2024-01-14T07:02:04.686Z,604.00
2024-01-14T07:03:04.892Z,602.00
2024-01-14T07:04:04.936Z,604.00
2024-01-14T07:05:04.902Z,604.00
2024-01-14T07:06:05.088Z,603.00
2024-01-14T07:07:05.078Z,603.00
2024-01-14T07:08:05.126Z,603.00
2024-01-14T07:09:05.248Z,603.00
2024-01-14T07:10:05.280Z,602.00
2024-01-14T07:11:05.355Z,603.00
2024-01-14T07:12:05.455Z,602.00
2024-01-14T07:13:05.480Z,602.00
2024-01-14T07:14:05.560Z,603.00
2024-01-14T07:15:05.670Z,603.00
2024-01-14T07:16:05.699Z,602.00
2024-01-14T07:17:05.767Z,604.00
2024-01-14T07:18:06.049Z,603.00
2024-01-14T07:19:06.199Z,603.00
2024-01-14T07:20:06.055Z,604.00
2024-01-14T07:21:06.041Z,603.00
2024-01-14T07:22:06.159Z,604.00
2024-01-14T07:23:40.852Z,603.00
2024-01-14T07:24:07.308Z,603.00
2024-01-14T07:25:06.223Z,603.00
2024-01-14T07:26:06.198Z,603.00
2024-01-14T07:27:06.244Z,604.00
2024-01-14T07:28:06.199Z,604.00
2024-01-14T07:29:06.249Z,604.00
2024-01-14T07:30:06.316Z,604.00
2024-01-14T07:31:06.368Z,605.00
2024-01-14T07:32:06.947Z,606.00
2024-01-14T07:33:06.461Z,605.00
2024-01-14T07:34:06.563Z,606.00
2024-01-14T07:35:06.517Z,603.00
2024-01-14T07:36:06.642Z,604.00
2024-01-14T07:37:06.672Z,603.00
2024-01-14T07:38:06.735Z,603.00
2024-01-14T07:39:06.897Z,604.00
2024-01-14T07:40:06.882Z,604.00
2024-01-14T07:41:06.961Z,604.00
2024-01-14T07:42:07.080Z,602.00
2024-01-14T07:43:07.081Z,604.00
2024-01-14T07:44:07.172Z,603.00
2024-01-14T07:45:07.208Z,605.00
2024-01-14T07:46:07.285Z,605.00
2024-01-14T07:47:07.339Z,604.00
2024-01-14T07:48:07.515Z,603.00
2024-01-14T07:49:07.551Z,603.00
2024-01-14T07:50:07.501Z,603.00
2024-01-14T07:51:07.647Z,604.00
2024-01-14T07:52:07.644Z,604.00
2024-01-14T07:53:07.699Z,604.00
2024-01-14T07:54:07.790Z,603.00
2024-01-14T07:55:07.844Z,604.00
2024-01-14T07:56:07.861Z,604.00
2024-01-14T07:57:07.966Z,604.00
2024-01-14T07:58:08.031Z,604.00
2024-01-14T07:59:08.092Z,603.00
2024-01-14T08:00:08.181Z,605.00
2024-01-14T08:01:08.324Z,603.00
2024-01-14T08:02:08.302Z,603.00
2024-01-14T08:03:08.408Z,604.00
2024-01-14T08:04:08.582Z,604.00
2024-01-14T08:05:09.673Z,604.00
2024-01-14T08:06:08.622Z,604.00
2024-01-14T08:07:08.643Z,605.00
2024-01-14T08:08:08.733Z,604.00
2024-01-14T08:09:08.854Z,604.00
2024-01-14T08:10:08.863Z,606.00
2024-01-14T08:11:08.945Z,605.00
2024-01-14T08:12:09.019Z,605.00
2024-01-14T08:13:09.094Z,605.00
2024-01-14T08:14:09.136Z,604.00
2024-01-14T08:15:09.255Z,603.00
2024-01-14T08:16:09.336Z,605.00
2024-01-14T08:17:09.372Z,604.00
2024-01-14T08:18:09.683Z,605.00
2024-01-14T08:19:09.582Z,605.00
2024-01-14T08:20:09.782Z,604.00
2024-01-14T08:21:09.714Z,604.00
2024-01-14T08:22:09.759Z,603.00
2024-01-14T08:23:10.064Z,603.00
2024-01-14T08:24:09.913Z,605.00
2024-01-14T08:25:09.929Z,603.00
2024-01-14T08:26:09.998Z,604.00
2024-01-14T08:27:10.116Z,601.00
2024-01-14T08:28:10.161Z,604.00
2024-01-14T08:29:18.458Z,604.00
2024-01-14T08:30:11.280Z,604.00
2024-01-14T08:31:10.355Z,604.00
2024-01-14T08:32:10.234Z,605.00
2024-01-14T08:33:10.400Z,604.00
2024-01-14T08:34:10.313Z,605.00
2024-01-14T08:35:10.231Z,607.00
2024-01-14T08:36:10.274Z,603.00
2024-01-14T08:37:10.295Z,603.00
2024-01-14T08:38:10.360Z,604.00
2024-01-14T08:39:10.462Z,605.00
2024-01-14T08:40:10.509Z,606.00
2024-01-14T08:41:10.602Z,605.00
2024-01-14T08:42:10.733Z,607.00
2024-01-14T08:43:10.736Z,605.00
2024-01-14T08:44:10.834Z,609.00
2024-01-14T08:45:10.870Z,606.00
2024-01-14T08:46:10.930Z,606.00
2024-01-14T08:47:11.069Z,605.00
2024-01-14T08:48:11.137Z,606.00
2024-01-14T08:49:11.311Z,607.00
2024-01-14T08:50:11.152Z,605.00
2024-01-14T08:51:11.244Z,606.00
2024-01-14T08:52:11.259Z,608.00
2024-01-14T08:53:11.339Z,609.00
2024-01-14T08:54:11.381Z,605.00
2024-01-14T08:55:11.420Z,606.00
2024-01-14T08:56:11.471Z,608.00
2024-01-14T08:57:11.577Z,606.00
2024-01-14T08:58:11.559Z,606.00
2024-01-14T08:59:11.605Z,608.00
2024-01-14T09:00:11.825Z,606.00
2024-01-14T09:01:11.788Z,606.00
2024-01-14T09:02:11.725Z,606.00
2024-01-14T09:03:11.911Z,606.00
2024-01-14T09:04:11.955Z,607.00
2024-01-14T09:05:11.869Z,608.00
2024-01-14T09:06:11.940Z,605.00
2024-01-14T09:07:11.909Z,604.00
2024-01-14T09:08:11.946Z,604.00
2024-01-14T09:09:12.027Z,605.00
2024-01-14T09:10:12.019Z,604.00
2024-01-14T09:11:12.098Z,604.00
2024-01-14T09:12:12.150Z,603.00
2024-01-14T09:13:12.124Z,603.00
2024-01-14T09:14:12.147Z,603.00
2024-01-14T09:15:12.164Z,602.00
2024-01-14T09:16:12.204Z,603.00
2024-01-14T09:17:12.246Z,601.00
2024-01-14T09:18:12.519Z,602.00
2024-01-14T09:19:12.423Z,603.00
2024-01-14T09:20:12.435Z,603.00
2024-01-14T09:21:12.467Z,602.00
2024-01-14T09:22:12.462Z,601.00
2024-01-14T09:23:12.509Z,601.00
2024-01-14T09:24:12.601Z,601.00
2024-01-14T09:25:13.432Z,602.00
2024-01-14T09:26:12.713Z,601.00
2024-01-14T09:27:12.833Z,601.00
2024-01-14T09:28:12.860Z,600.00
2024-01-14T09:29:12.936Z,600.00
2024-01-14T09:30:20.317Z,600.00
2024-01-14T09:31:20.466Z,600.00
2024-01-14T09:32:20.265Z,600.00
2024-01-14T09:33:20.360Z,600.00
2024-01-14T09:34:20.427Z,600.00
2024-01-14T09:35:20.268Z,601.00
2024-01-14T09:36:20.280Z,601.00
2024-01-14T09:37:20.288Z,600.00
2024-01-14T09:38:20.306Z,600.00
2024-01-14T09:39:20.338Z,604.00
2024-01-14T09:40:20.287Z,603.00
2024-01-14T09:41:20.271Z,602.00
2024-01-14T09:42:20.478Z,601.00
2024-01-14T09:43:20.289Z,603.00
2024-01-14T09:44:20.291Z,604.00
2024-01-14T09:45:27.355Z,603.00
2024-01-14T09:46:21.357Z,603.00
2024-01-14T09:47:20.278Z,603.00
2024-01-14T09:48:20.718Z,603.00
2024-01-14T09:49:20.355Z,604.00
2024-01-14T09:50:41.292Z,606.00
2024-01-14T09:51:20.332Z,603.00
2024-01-14T09:52:20.303Z,605.00
2024-01-14T09:53:20.277Z,607.00
2024-01-14T09:54:20.359Z,609.00
2024-01-14T09:55:20.327Z,610.00
2024-01-14T09:56:20.322Z,609.00
2024-01-14T09:57:20.372Z,610.00
2024-01-14T09:58:20.880Z,609.00
2024-01-14T09:59:20.301Z,608.00
2024-01-14T10:00:20.412Z,609.00
2024-01-14T10:01:20.360Z,611.00
2024-01-14T10:02:20.324Z,608.00
2024-01-14T10:03:20.346Z,606.00
2024-01-14T10:04:20.336Z,607.00
2024-01-14T10:05:20.305Z,609.00
2024-01-14T10:06:20.425Z,609.00
2024-01-14T10:07:20.498Z,607.00
2024-01-14T10:08:20.322Z,609.00
2024-01-14T10:09:20.309Z,606.00
2024-01-14T10:10:20.371Z,607.00
2024-01-14T10:11:20.317Z,612.00
2024-01-14T10:12:20.391Z,613.00
2024-01-14T10:13:20.321Z,610.00
2024-01-14T10:14:20.314Z,610.00
2024-01-14T10:15:20.353Z,615.00
2024-01-14T10:16:50.246Z,613.00
2024-01-14T10:17:21.327Z,613.00
2024-01-14T10:18:20.439Z,614.00
2024-01-14T10:19:20.390Z,616.00
2024-01-14T10:20:20.333Z,616.00
2024-01-14T10:21:20.377Z,619.00
2024-01-14T10:22:20.321Z,623.00
2024-01-14T10:23:20.337Z,622.00
2024-01-14T10:24:20.376Z,624.00
2024-01-14T10:25:20.339Z,623.00
2024-01-14T10:26:20.344Z,624.00
2024-01-14T10:27:34.049Z,626.00
2024-01-14T10:28:21.341Z,626.00
2024-01-14T10:29:20.315Z,626.00
2024-01-14T10:30:20.371Z,627.00
2024-01-14T10:31:20.374Z,627.00
2024-01-14T10:32:20.577Z,633.00
2024-01-14T10:33:23.446Z,629.00
2024-01-14T10:34:20.583Z,629.00
2024-01-14T10:35:21.484Z,629.00
2024-01-14T10:36:20.459Z,630.00
2024-01-14T10:37:20.392Z,632.00
2024-01-14T10:38:20.351Z,635.00
2024-01-14T10:39:20.392Z,639.00
2024-01-14T10:40:20.367Z,638.00
2024-01-14T10:41:20.374Z,636.00
2024-01-14T10:42:20.405Z,637.00
2024-01-14T10:43:20.351Z,637.00
2024-01-14T10:44:20.370Z,636.00
2024-01-14T10:45:20.534Z,641.00
2024-01-14T10:46:20.370Z,639.00
2024-01-14T10:47:20.370Z,639.00
2024-01-14T10:48:20.517Z,639.00
2024-01-14T10:49:20.452Z,637.00
2024-01-14T10:50:20.370Z,639.00
2024-01-14T10:51:20.425Z,638.00
2024-01-14T10:52:20.410Z,642.00
2024-01-14T10:53:20.456Z,644.00
2024-01-14T10:54:20.576Z,641.00
2024-01-14T10:55:20.506Z,647.00
2024-01-14T10:56:20.543Z,645.00
2024-01-14T10:57:20.749Z,643.00
2024-01-14T10:58:20.617Z,649.00
2024-01-14T10:59:20.640Z,648.00
2024-01-14T11:00:20.672Z,643.00
2024-01-14T11:01:20.736Z,646.00
2024-01-14T11:02:20.757Z,645.00
2024-01-14T11:03:20.802Z,645.00
2024-01-14T11:04:20.903Z,647.00
2024-01-14T11:05:20.867Z,649.00
2024-01-14T11:06:20.886Z,647.00
2024-01-14T11:07:20.916Z,650.00
2024-01-14T11:08:20.954Z,654.00
2024-01-14T11:09:21.030Z,652.00
2024-01-14T11:10:21.038Z,654.00
2024-01-14T11:11:21.040Z,657.00
2024-01-14T11:12:24.895Z,653.00
2024-01-14T11:13:22.084Z,653.00
2024-01-14T11:14:21.099Z,653.00
2024-01-14T11:15:23.149Z,655.00
2024-01-14T11:16:21.122Z,651.00
2024-01-14T11:17:21.095Z,653.00
2024-01-14T11:18:21.285Z,654.00
2024-01-14T11:19:29.861Z,655.00
2024-01-14T11:20:22.218Z,655.00
2024-01-14T11:21:32.593Z,655.00
2024-01-14T11:22:32.199Z,655.00
2024-01-14T11:23:22.264Z,655.00
2024-01-14T11:24:21.145Z,657.00
2024-01-14T11:25:21.137Z,658.00
2024-01-14T11:26:21.114Z,662.00
2024-01-14T11:27:25.138Z,667.00
2024-01-14T11:28:21.191Z,655.00
2024-01-14T11:29:21.100Z,657.00
2024-01-14T11:30:21.220Z,660.00
2024-01-14T11:31:21.206Z,664.00
2024-01-14T11:32:21.167Z,669.00
2024-01-14T11:33:21.225Z,669.00
2024-01-14T11:34:21.292Z,666.00
2024-01-14T11:35:21.108Z,668.00
2024-01-14T11:36:21.199Z,672.00
2024-01-14T11:37:21.118Z,665.00
2024-01-14T11:38:21.128Z,667.00
2024-01-14T11:39:21.145Z,667.00
2024-01-14T11:40:21.151Z,664.00
2024-01-14T11:41:21.110Z,670.00
2024-01-14T11:42:21.177Z,668.00
2024-01-14T11:43:21.120Z,672.00
2024-01-14T11:44:21.136Z,663.00
2024-01-14T11:45:21.182Z,664.00
2024-01-14T11:46:21.150Z,665.00
2024-01-14T11:47:21.114Z,664.00
2024-01-14T11:48:21.235Z,670.00
2024-01-14T11:49:25.082Z,664.00
2024-01-14T11:50:21.214Z,664.00
2024-01-14T11:51:21.123Z,665.00
2024-01-14T11:52:21.129Z,665.00
2024-01-14T11:53:21.121Z,664.00
2024-01-14T11:54:21.156Z,666.00
2024-01-14T11:55:21.188Z,662.00
2024-01-14T11:56:21.136Z,663.00
2024-01-14T11:57:21.152Z,659.00
2024-01-14T11:58:21.142Z,663.00
2024-01-14T11:59:30.091Z,665.00
2024-01-14T12:00:22.186Z,665.00
2024-01-14T12:01:21.248Z,665.00
2024-01-14T12:02:21.181Z,662.00
2024-01-14T12:03:21.159Z,662.00
2024-01-14T12:04:21.161Z,665.00
2024-01-14T12:05:21.238Z,670.00
2024-01-14T12:06:21.270Z,663.00
2024-01-14T12:07:21.254Z,660.00
2024-01-14T12:08:21.155Z,665.00
2024-01-14T12:09:21.220Z,662.00
2024-01-14T12:10:21.158Z,660.00
2024-01-14T12:11:21.167Z,660.00
2024-01-14T12:12:21.201Z,663.00
2024-01-14T12:13:21.153Z,657.00
2024-01-14T12:14:21.159Z,659.00
2024-01-14T12:15:21.265Z,657.00
2024-01-14T12:16:21.247Z,660.00
2024-01-14T12:17:21.152Z,663.00
2024-01-14T12:18:21.386Z,660.00
2024-01-14T12:19:21.286Z,658.00
2024-01-14T12:20:21.238Z,661.00
2024-01-14T12:21:27.645Z,660.00
2024-01-14T12:22:22.272Z,660.00
2024-01-14T12:23:21.264Z,658.00
2024-01-14T12:24:25.328Z,660.00
2024-01-14T12:25:26.304Z,660.00
2024-01-14T12:26:22.284Z,660.00
2024-01-14T12:27:21.357Z,660.00
2024-01-14T12:28:21.270Z,660.00
2024-01-14T12:29:21.276Z,660.00